Accueil
METAR-TAF:

METAR-TAF

Aéroports :

Brooks Field

Marshall, Michigan, États-Unis

latitude: 42-15-04N, longitude: 084-57-20W, altitude: 287 m

Observation

Le bulletin a été fait il y a 23 minutes, à 08:55 UTC
Vent 4 kt de sud/sud-ouest
Température 14°C
Humidité 94%
Pression 1010 hPa
Visibilité: 16.1 km
Nuages fragmentés à une hauteur de 2400 ft
Nuages fragmentés à une hauteur de 3000 ft
Ciel couvert à une hauteur de 3700 ft

METAR: KRMY 210855Z AUTO 20004KT 10SM BKN024 BKN030 OVC037 14/13 A2982 RMK AO2 60001 T01430125 P0001

Heure: 05:18 (09:18 UTC)


TAF: absent

Observations et prévisions météorologiques de plus de 4000 aéroports (messages METAR et TAF).

Les stations disponibles sont représentées par des disques jaunes et rouges sur la carte.

Passer la souris dessus pour voir le nom de la station.

Cliquer dessus pour voir les observations et prévisions météorologiques.

Pour changer de carte: cliquez sur les boutons verts avec une croix noire pour zoomer, sur le bouton vert avec un tiret pour effectuer un zoom arrière, ou sur les flèches vertes pour les cartes adjacentes.


METAR-TAF: